MMPN/UPN METAR and TAF weather

Enter ICAO airport designator
Station Type Date Time Source
MMPN METAR 2020/10/29 16:40 UTC NOAA

MMPN 291640Z 00000KT 10SM OVC270 23/16 A3019 RMK 8/007 HZY


Station Type Date Time Source
MMPN Decoded METAR 2020/10/29 16:40 UTC NOAA

Uruapan / Gen Rayon, Mexico (MMPN) 19-24N 102-02W
Oct 29, 2020 - 12:40 PM EDT / 2020.10.29 1640 UTC
Wind: Calm:0
Visibility: 10 mile(s):0
Sky conditions: overcast
Temperature: 73 F (23 C)
Dew Point: 60 F (16 C)
Relative Humidity: 64%
Pressure (altimeter): 30.19 in. Hg (1022 hPa)
ob: MMPN 291640Z 00000KT 10SM OVC270 23/16 A3019 RMK 8/007 HZY
cycle: 16

Station Type Date Time Source
MMPN TAF 2020/10/29 18:43 UTC NOAA

TAF MMPN 291639Z 2918/3018 19010KT P6SM SCT020 BKN250
TEMPO 2920/2924 BKN020CB
FM300300 00000KT P6SM SCT025 BKN250
TEMPO 3011/3015 3SM BR HZ BKN015
FM301600 16006KT P6SM SCT100 BKN250

Example: see airport list